| time (UTC) | temp F | wind direction | speed knots | gust knots | rain 1hr in | rain 24hr in | rain mn in | humidity % | barometer mb |
| 20260505102110 | 49 | 228 | 0.0 | 5.2 | 0.00 | 0.53 | 0.08 | 100 | 1010.3 |
| 20260505101108 | 49 | 232 | 0.0 | 3.5 | 0.00 | 0.53 | 0.08 | 100 | 1010.4 |
| 20260505100058 | 49 | 233 | 0.0 | 1.7 | 0.00 | 0.53 | 0.08 | 100 | 1010.4 |
| 20260505095049 | 49 | 275 | 0.0 | 0.9 | 0.00 | 0.53 | 0.08 | 100 | 1010.3 |
| 20260505094551 | 49 | 281 | 0.0 | 4.3 | 0.00 | 0.53 | 0.08 | 100 | 1010.4 |
| 20260505093044 | 49 | 327 | 0.0 | 2.6 | 0.01 | 0.53 | 0.08 | 100 | 1010.3 |
| 20260505092546 | 49 | 103 | 0.0 | 1.7 | 0.03 | 0.53 | 0.08 | 100 | 1010.4 |
| 20260505091044 | 49 | 215 | 0.0 | 0.9 | 0.04 | 0.53 | 0.08 | 100 | 1010.6 |
| 20260505090541 | 49 | 228 | 0.0 | 0.9 | 0.05 | 0.53 | 0.08 | 100 | 1011.0 |
| 20260505085033 | 49 | 228 | 0.0 | 3.5 | 0.05 | 0.53 | 0.08 | 100 | 1010.8 |
| 20260505084010 | 49 | 29 | 0.9 | 3.5 | 0.06 | 0.53 | 0.08 | 100 | 1010.6 |
| 20260505083000 | 49 | 249 | 0.9 | 7.0 | 0.05 | 0.52 | 0.07 | 100 | 1010.8 |
| 20260505081959 | 49 | 130 | 0.9 | 6.1 | 0.04 | 0.50 | 0.05 | 100 | 1010.9 |
| 20260505081000 | 49 | 99 | 0.9 | 4.3 | 0.04 | 0.49 | 0.04 | 100 | 1010.9 |
| 20260505080000 | 49 | 234 | 0.0 | 2.6 | 0.03 | 0.48 | 0.03 | 100 | 1010.8 |
| 20260505074945 | 50 | 61 | 0.9 | 7.8 | 0.04 | 0.48 | 0.03 | 100 | 1011.0 |
| 20260505073941 | 50 | 53 | 1.7 | 8.7 | 0.03 | 0.47 | 0.02 | 100 | 1011.0 |
| 20260505072942 | 49 | 232 | 0.9 | 6.1 | 0.04 | 0.47 | 0.02 | 100 | 1011.2 |
| 20260505065931 | 49 | 254 | 0.0 | 3.5 | 0.05 | 0.45 | 0.45 | 100 | 1011.2 |
| 20260505064927 | 49 | 127 | 0.9 | 6.1 | 0.04 | 0.44 | 0.44 | 100 | 1011.2 |
| 20260505063926 | 49 | 159 | 0.9 | 3.5 | 0.05 | 0.44 | 0.44 | 100 | 1010.8 |
| 20260505062922 | 49 | 235 | 0.0 | 4.3 | 0.04 | 0.43 | 0.43 | 100 | 1010.8 |
| 20260505062421 | 49 | 191 | 0.0 | 5.2 | 0.04 | 0.42 | 0.42 | 100 | 1011.1 |
| 20260505060919 | 49 | 149 | 0.0 | 2.6 | 0.02 | 0.40 | 0.40 | 100 | 1011.2 |
| 20260505055917 | 49 | 227 | 0.9 | 4.3 | 0.03 | 0.40 | 0.40 | 100 | 1011.0 |
| 20260505054916 | 49 | 254 | 0.0 | 5.2 | 0.04 | 0.40 | 0.40 | 100 | 1010.9 |
| 20260505053915 | 48 | 52 | 0.0 | 3.5 | 0.05 | 0.39 | 0.39 | 100 | 1011.2 |
| 20260505052914 | 48 | 224 | 0.0 | 4.3 | 0.08 | 0.39 | 0.39 | 100 | 1011.1 |
| 20260505051911 | 48 | 244 | 0.9 | 7.8 | 0.10 | 0.38 | 0.38 | 100 | 1011.2 |
| 20260505051406 | 48 | 254 | 0.9 | 6.1 | 0.11 | 0.38 | 0.38 | 100 | 1011.1 |
| 20260505041339 | 47 | 84 | 0.0 | 1.7 | 0.04 | 0.27 | 0.27 | 100 | 1011.7 |
| 20260505035838 | 47 | 239 | 0.9 | 2.6 | 0.03 | 0.26 | 0.26 | 100 | 1011.4 |
| 20260505035328 | 48 | 244 | 0.9 | 4.3 | 0.03 | 0.26 | 0.26 | 100 | 1010.9 |
| 20260505033818 | 48 | 207 | 0.0 | 4.3 | 0.04 | 0.25 | 0.25 | 100 | 1010.6 |
| 20260505032816 | 48 | 184 | 0.0 | 2.6 | 0.06 | 0.25 | 0.25 | 100 | 1010.4 |
| 20260505031810 | 48 | 234 | 0.9 | 6.1 | 0.05 | 0.24 | 0.24 | 100 | 1010.4 |
| 20260505030809 | 49 | 37 | 0.9 | 6.1 | 0.05 | 0.23 | 0.23 | 100 | 1010.5 |
| 20260505025809 | 49 | 77 | 0.9 | 5.2 | 0.07 | 0.23 | 0.23 | 100 | 1010.9 |
| 20260505024803 | 49 | 132 | 0.0 | 2.6 | 0.07 | 0.23 | 0.23 | 100 | 1010.9 |
| 20260505023800 | 49 | 112 | 0.0 | 2.6 | 0.05 | 0.21 | 0.21 | 100 | 1010.9 |
| 20260505022758 | 49 | 34 | 0.0 | 2.6 | 0.04 | 0.19 | 0.19 | 100 | 1011.0 |
| 20260505021755 | 49 | 239 | 0.9 | 7.8 | 0.04 | 0.19 | 0.19 | 100 | 1010.8 |
| 20260505020732 | 49 | 37 | 0.9 | 6.1 | 0.04 | 0.18 | 0.18 | 100 | 1010.8 |
| 20260505015730 | 50 | 253 | 0.9 | 5.2 | 0.02 | 0.16 | 0.17 | 100 | 1011.0 |
| 20260505014730 | 50 | 98 | 0.9 | 3.5 | 0.03 | 0.16 | 0.16 | 100 | 1011.3 |
| 20260505013728 | 50 | 129 | 0.9 | 4.3 | 0.05 | 0.16 | 0.16 | 100 | 1011.4 |
| 20260505012728 | 50 | 198 | 0.0 | 4.3 | 0.05 | 0.15 | 0.15 | 100 | 1011.6 |
| 20260505011725 | 50 | 168 | 0.9 | 3.5 | 0.07 | 0.15 | 0.15 | 100 | 1011.6 |
| 20260505011228 | 51 | 190 | 0.9 | 7.0 | 0.08 | 0.14 | 0.15 | 99 | 1011.5 |
| 20260505005724 | 51 | 216 | 0.9 | 5.2 | 0.09 | 0.14 | 0.14 | 99 | 1011.6 |
| 20260505004722 | 51 | 277 | 0.9 | 4.3 | 0.08 | 0.13 | 0.13 | 99 | 1011.7 |
| 20260505003721 | 51 | 111 | 0.9 | 5.2 | 0.07 | 0.11 | 0.11 | 98 | 1011.8 |
| 20260505002711 | 51 | 139 | 0.9 | 5.2 | 0.07 | 0.10 | 0.10 | 97 | 1011.8 |
| 20260505001708 | 51 | 165 | 0.9 | 3.5 | 0.05 | 0.08 | 0.08 | 96 | 1011.8 |
| 20260505000707 | 51 | 232 | 0.0 | 1.7 | 0.04 | 0.06 | 0.06 | 96 | 1011.7 |
| 20260505000208 | 52 | 344 | 0.0 | 2.6 | 0.03 | 0.05 | 0.05 | 95 | 1011.6 |
| 20260504235207 | 52 | 226 | 0.0 | 5.2 | 0.04 | 0.05 | 0.05 | 95 | 1011.5 |
| 20260504233705 | 52 | 342 | 0.0 | 2.6 | 0.03 | 0.04 | 0.04 | 95 | 1011.6 |
| 20260504231643 | 53 | 52 | 0.0 | 5.2 | 0.02 | 0.03 | 0.03 | 92 | 1011.5 |
| 20260504230641 | 54 | 271 | 0.0 | 4.3 | 0.02 | 0.02 | 0.02 | 91 | 1011.5 |
| 20260504225640 | 55 | 236 | 0.0 | 2.6 | 0.02 | 0.02 | 0.02 | 90 | 1011.7 |
| 20260504224637 | 55 | 261 | 0.0 | 2.6 | 0.01 | 0.01 | 0.01 | 88 | 1011.8 |
| 20260504223625 | 56 | 139 | 0.0 | 0.9 | 0.01 | 0.01 | 0.01 | 88 | 1011.9 |
| 20260504222604 | 56 | 139 | 0.0 | 1.7 | 0.01 | 0.01 | 0.01 | 89 | 1012.0 |
| 20260504221601 | 56 | 65 | 0.0 | 2.6 | 0.01 | 0.01 | 0.01 | 87 | 1011.9 |
| 20260504220548 | 56 | 77 | 0.9 | 3.5 | 0.00 | 0.00 | 0.00 | 88 | 1011.8 |
| 20260504215548 | 56 | 82 | 0.0 | 2.6 | 0.00 | 0.00 | 0.00 | 86 | 1011.8 |
| 20260504214545 | 56 | 194 | 0.0 | 1.7 | 0.00 | 0.00 | 0.00 | 85 | 1011.8 |
| 20260504213547 | 57 | 217 | 0.0 | 1.7 | 0.00 | 0.00 | 0.00 | 84 | 1011.8 |
| 20260504212546 | 58 | 61 | 0.9 | 3.5 | 0.00 | 0.00 | 0.00 | 80 | 1011.9 |
| 20260504211544 | 58 | 217 | 0.9 | 4.3 | 0.00 | 0.00 | 0.00 | 77 | 1011.8 |
| 20260504210544 | 58 | 43 | 0.9 | 5.2 | 0.00 | 0.00 | 0.00 | 76 | 1011.9 |
| 20260504205538 | 59 | 116 | 1.7 | 6.1 | 0.00 | 0.00 | 0.00 | 75 | 1011.8 |
| 20260504205038 | 60 | 148 | 0.9 | 5.2 | 0.00 | 0.00 | 0.00 | 75 | 1011.8 |
| 20260504204038 | 59 | 92 | 0.9 | 4.3 | 0.00 | 0.00 | 0.00 | 77 | 1011.8 |
| 20260504202533 | 59 | 288 | 0.9 | 4.3 | 0.00 | 0.00 | 0.00 | 77 | 1011.9 |
| 20260504202038 | 59 | 186 | 0.9 | 7.8 | 0.00 | 0.00 | 0.00 | 79 | 1011.9 |
| 20260504200530 | 59 | 331 | 0.9 | 8.7 | 0.00 | 0.00 | 0.00 | 78 | 1011.9 |
| 20260504195528 | 58 | 49 | 0.9 | 5.2 | 0.00 | 0.00 | 0.00 | 79 | 1012.0 |
| 20260504194516 | 58 | 208 | 0.9 | 5.2 | 0.00 | 0.00 | 0.00 | 80 | 1011.9 |
| 20260504193515 | 58 | 96 | 0.9 | 7.0 | 0.00 | 0.00 | 0.00 | 78 | 1011.8 |
| 20260504192514 | 58 | 49 | 0.9 | 3.5 | 0.00 | 0.00 | 0.00 | 79 | 1012.0 |
| 20260504191456 | 58 | 47 | 0.9 | 3.5 | 0.00 | 0.00 | 0.00 | 77 | 1012.0 |
| 20260504190456 | 59 | 167 | 0.9 | 3.5 | 0.00 | 0.00 | 0.00 | 78 | 1012.0 |
| 20260504185455 | 59 | 205 | 0.9 | 5.2 | 0.00 | 0.00 | 0.00 | 78 | 1012.0 |
| 20260504184453 | 59 | 106 | 0.9 | 5.2 | 0.00 | 0.00 | 0.00 | 76 | 1011.9 |
| 20260504183451 | 59 | 236 | 1.7 | 7.8 | 0.00 | 0.00 | 0.00 | 77 | 1011.9 |
| 20260504182452 | 60 | 215 | 0.9 | 4.3 | 0.00 | 0.00 | 0.00 | 78 | 1011.9 |
| 20260504181438 | 60 | 24 | 1.7 | 5.2 | 0.00 | 0.00 | 0.00 | 76 | 1012.0 |
| 20260504180439 | 60 | 164 | 0.9 | 4.3 | 0.00 | 0.00 | 0.00 | 74 | 1011.9 |
| 20260504175926 | 61 | 115 | 0.9 | 5.2 | 0.00 | 0.00 | 0.00 | 76 | 1011.9 |
| 20260504174921 | 61 | 232 | 1.7 | 6.1 | 0.00 | 0.00 | 0.00 | 77 | 1011.7 |
| 20260504173416 | 61 | 128 | 1.7 | 6.1 | 0.00 | 0.00 | 0.00 | 77 | 1011.8 |
| 20260504172419 | 60 | 71 | 0.9 | 4.3 | 0.00 | 0.00 | 0.00 | 80 | 1011.6 |
| 20260504171417 | 60 | 39 | 0.9 | 4.3 | 0.00 | 0.00 | 0.00 | 84 | 1011.6 |
| 20260504170430 | 58 | 125 | 0.9 | 3.5 | 0.00 | 0.00 | 0.00 | 83 | 1011.6 |
| 20260504160339 | 53 | 211 | 0.0 | 1.7 | 0.00 | 0.00 | 0.00 | 96 | 1011.5 |
| 20260504150304 | 50 | 200 | 0.0 | 1.7 | 0.00 | 0.00 | 0.00 | 100 | 1011.1 |
| 20260504140212 | 48 | 228 | 0.0 | 0.0 | 0.00 | 0.00 | 0.00 | 100 | 1010.9 |